sensor_id;sensor_type;location;lat;lon;timestamp;P1;durP1;ratioP1;P2;durP2;ratioP2
41921;SDS011;27609;51.002;5.354;2022-10-16T00:02:00;2.25;;;1.50;;
41921;SDS011;27609;51.002;5.354;2022-10-16T00:04:26;5.22;;;1.30;;
41921;SDS011;27609;51.002;5.354;2022-10-16T00:06:52;5.20;;;1.38;;
41921;SDS011;27609;51.002;5.354;2022-10-16T00:09:17;4.82;;;1.27;;
41921;SDS011;27609;51.002;5.354;2022-10-16T00:11:43;5.15;;;1.08;;
41921;SDS011;27609;51.002;5.354;2022-10-16T00:14:10;5.15;;;1.30;;
41921;SDS011;27609;51.002;5.354;2022-10-16T00:16:38;1.52;;;1.02;;
41921;SDS011;27609;51.002;5.354;2022-10-16T00:19:04;4.10;;;1.20;;
41921;SDS011;27609;51.002;5.354;2022-10-16T00:21:31;1.55;;;1.10;;
41921;SDS011;27609;51.002;5.354;2022-10-16T00:24:00;1.67;;;1.00;;
41921;SDS011;27609;51.002;5.354;2022-10-16T00:26:28;6.35;;;1.38;;
41921;SDS011;27609;51.002;5.354;2022-10-16T00:28:55;1.63;;;1.33;;
41921;SDS011;27609;51.002;5.354;2022-10-16T00:31:21;3.28;;;1.52;;
41921;SDS011;27609;51.002;5.354;2022-10-16T00:33:48;1.40;;;1.30;;
41921;SDS011;27609;51.002;5.354;2022-10-16T00:36:16;1.58;;;1.15;;
41921;SDS011;27609;51.002;5.354;2022-10-16T00:38:44;3.53;;;1.30;;
41921;SDS011;27609;51.002;5.354;2022-10-16T00:41:12;5.13;;;1.27;;
41921;SDS011;27609;51.002;5.354;2022-10-16T00:43:43;5.07;;;1.45;;
41921;SDS011;27609;51.002;5.354;2022-10-16T00:46:19;1.48;;;1.00;;
41921;SDS011;27609;51.002;5.354;2022-10-16T00:49:09;4.40;;;1.25;;
41921;SDS011;27609;51.002;5.354;2022-10-16T00:51:45;1.48;;;1.05;;
41921;SDS011;27609;51.002;5.354;2022-10-16T00:54:14;6.57;;;1.23;;
41921;SDS011;27609;51.002;5.354;2022-10-16T00:56:52;2.30;;;1.08;;
41921;SDS011;27609;51.002;5.354;2022-10-16T00:59:24;4.00;;;1.10;;
41921;SDS011;27609;51.002;5.354;2022-10-16T01:01:52;1.20;;;1.00;;
41921;SDS011;27609;51.002;5.354;2022-10-16T01:04:19;1.50;;;1.13;;
41921;SDS011;27609;51.002;5.354;2022-10-16T01:09:27;4.65;;;1.20;;
41921;SDS011;27609;51.002;5.354;2022-10-16T01:12:11;1.80;;;0.82;;
41921;SDS011;27609;51.002;5.354;2022-10-16T01:17:34;1.75;;;1.23;;
41921;SDS011;27609;51.002;5.354;2022-10-16T01:28:28;1.38;;;1.08;;
41921;SDS011;27609;51.002;5.354;2022-10-16T01:31:01;2.10;;;1.20;;
41921;SDS011;27609;51.002;5.354;2022-10-16T01:33:29;2.90;;;0.82;;
41921;SDS011;27609;51.002;5.354;2022-10-16T01:36:02;1.20;;;0.82;;
41921;SDS011;27609;51.002;5.354;2022-10-16T01:38:36;1.42;;;0.70;;
41921;SDS011;27609;51.002;5.354;2022-10-16T01:41:06;4.43;;;1.13;;
41921;SDS011;27609;51.002;5.354;2022-10-16T01:43:38;1.20;;;0.93;;
41921;SDS011;27609;51.002;5.354;2022-10-16T01:46:10;1.30;;;1.10;;
41921;SDS011;27609;51.002;5.354;2022-10-16T01:48:41;2.33;;;0.88;;
41921;SDS011;27609;51.002;5.354;2022-10-16T01:51:08;1.25;;;1.05;;
41921;SDS011;27609;51.002;5.354;2022-10-16T01:53:37;0.80;;;0.80;;
41921;SDS011;27609;51.002;5.354;2022-10-16T01:56:04;2.97;;;1.00;;
41921;SDS011;27609;51.002;5.354;2022-10-16T01:58:35;2.00;;;1.38;;
41921;SDS011;27609;51.002;5.354;2022-10-16T02:01:05;2.00;;;1.50;;
41921;SDS011;27609;51.002;5.354;2022-10-16T02:03:34;1.40;;;1.15;;
41921;SDS011;27609;51.002;5.354;2022-10-16T02:06:02;1.10;;;1.00;;
41921;SDS011;27609;51.002;5.354;2022-10-16T02:08:28;1.55;;;1.20;;
41921;SDS011;27609;51.002;5.354;2022-10-16T02:10:56;9.60;;;1.52;;
41921;SDS011;27609;51.002;5.354;2022-10-16T02:13:27;2.10;;;1.30;;
41921;SDS011;27609;51.002;5.354;2022-10-16T02:15:58;2.45;;;1.00;;
41921;SDS011;27609;51.002;5.354;2022-10-16T02:18:24;1.27;;;1.02;;
41921;SDS011;27609;51.002;5.354;2022-10-16T02:28:37;1.40;;;0.82;;
41921;SDS011;27609;51.002;5.354;2022-10-16T02:31:10;3.72;;;1.60;;
41921;SDS011;27609;51.002;5.354;2022-10-16T02:33:38;2.97;;;1.23;;
41921;SDS011;27609;51.002;5.354;2022-10-16T02:36:07;1.10;;;1.00;;
41921;SDS011;27609;51.002;5.354;2022-10-16T02:38:33;1.00;;;0.90;;
41921;SDS011;27609;51.002;5.354;2022-10-16T02:41:00;2.85;;;1.35;;
41921;SDS011;27609;51.002;5.354;2022-10-16T02:43:26;1.50;;;1.02;;
41921;SDS011;27609;51.002;5.354;2022-10-16T02:45:52;3.05;;;1.08;;
41921;SDS011;27609;51.002;5.354;2022-10-16T02:48:18;3.47;;;1.13;;
41921;SDS011;27609;51.002;5.354;2022-10-16T02:50:43;1.42;;;1.00;;
41921;SDS011;27609;51.002;5.354;2022-10-16T02:53:09;3.35;;;1.20;;
41921;SDS011;27609;51.002;5.354;2022-10-16T02:55:35;2.20;;;1.00;;
41921;SDS011;27609;51.002;5.354;2022-10-16T02:58:02;3.53;;;0.90;;
41921;SDS011;27609;51.002;5.354;2022-10-16T03:00:28;1.63;;;1.10;;
41921;SDS011;27609;51.002;5.354;2022-10-16T03:02:53;0.60;;;0.60;;
41921;SDS011;27609;51.002;5.354;2022-10-16T03:05:19;1.65;;;1.10;;
41921;SDS011;27609;51.002;5.354;2022-10-16T03:07:45;1.10;;;1.00;;
41921;SDS011;27609;51.002;5.354;2022-10-16T03:10:11;3.40;;;1.13;;
41921;SDS011;27609;51.002;5.354;2022-10-16T03:12:36;3.92;;;1.00;;
41921;SDS011;27609;51.002;5.354;2022-10-16T03:15:02;3.80;;;1.40;;
41921;SDS011;27609;51.002;5.354;2022-10-16T03:17:29;4.65;;;1.30;;
41921;SDS011;27609;51.002;5.354;2022-10-16T03:19:54;1.08;;;0.90;;
41921;SDS011;27609;51.002;5.354;2022-10-16T03:22:20;1.52;;;1.23;;
41921;SDS011;27609;51.002;5.354;2022-10-16T03:24:46;1.80;;;1.20;;
41921;SDS011;27609;51.002;5.354;2022-10-16T03:27:11;2.75;;;1.17;;
41921;SDS011;27609;51.002;5.354;2022-10-16T03:29:37;2.47;;;1.33;;
41921;SDS011;27609;51.002;5.354;2022-10-16T03:32:03;2.50;;;1.35;;
41921;SDS011;27609;51.002;5.354;2022-10-16T03:34:29;1.10;;;1.10;;
41921;SDS011;27609;51.002;5.354;2022-10-16T03:36:54;2.33;;;0.95;;
41921;SDS011;27609;51.002;5.354;2022-10-16T03:39:20;3.05;;;1.50;;
41921;SDS011;27609;51.002;5.354;2022-10-16T03:41:46;4.80;;;1.23;;
41921;SDS011;27609;51.002;5.354;2022-10-16T03:44:12;5.10;;;1.10;;
41921;SDS011;27609;51.002;5.354;2022-10-16T03:46:38;2.88;;;1.27;;
41921;SDS011;27609;51.002;5.354;2022-10-16T03:49:04;6.75;;;1.50;;
41921;SDS011;27609;51.002;5.354;2022-10-16T03:51:30;1.88;;;1.42;;
41921;SDS011;27609;51.002;5.354;2022-10-16T03:53:55;1.75;;;1.00;;
41921;SDS011;27609;51.002;5.354;2022-10-16T03:56:21;3.05;;;1.35;;
41921;SDS011;27609;51.002;5.354;2022-10-16T03:58:47;1.92;;;0.90;;
41921;SDS011;27609;51.002;5.354;2022-10-16T04:01:12;2.50;;;1.02;;
41921;SDS011;27609;51.002;5.354;2022-10-16T04:03:38;3.53;;;1.83;;
41921;SDS011;27609;51.002;5.354;2022-10-16T04:06:04;2.20;;;1.20;;
41921;SDS011;27609;51.002;5.354;2022-10-16T04:08:30;5.15;;;1.60;;
41921;SDS011;27609;51.002;5.354;2022-10-16T04:10:59;1.90;;;1.50;;
41921;SDS011;27609;51.002;5.354;2022-10-16T04:13:24;3.70;;;1.70;;
41921;SDS011;27609;51.002;5.354;2022-10-16T04:15:50;1.67;;;1.20;;
41921;SDS011;27609;51.002;5.354;2022-10-16T04:18:16;3.03;;;1.60;;
41921;SDS011;27609;51.002;5.354;2022-10-16T04:20:41;1.73;;;1.40;;
41921;SDS011;27609;51.002;5.354;2022-10-16T04:23:07;3.40;;;1.40;;
41921;SDS011;27609;51.002;5.354;2022-10-16T04:25:33;4.97;;;1.20;;
41921;SDS011;27609;51.002;5.354;2022-10-16T04:27:59;4.13;;;1.40;;
41921;SDS011;27609;51.002;5.354;2022-10-16T04:30:24;6.43;;;1.48;;
41921;SDS011;27609;51.002;5.354;2022-10-16T04:32:51;2.22;;;1.20;;
41921;SDS011;27609;51.002;5.354;2022-10-16T04:35:18;2.55;;;1.60;;
41921;SDS011;27609;51.002;5.354;2022-10-16T04:37:44;4.82;;;1.83;;
41921;SDS011;27609;51.002;5.354;2022-10-16T04:40:10;1.40;;;1.30;;
41921;SDS011;27609;51.002;5.354;2022-10-16T04:42:36;7.38;;;1.27;;
41921;SDS011;27609;51.002;5.354;2022-10-16T04:45:03;3.75;;;1.88;;
41921;SDS011;27609;51.002;5.354;2022-10-16T04:47:31;6.60;;;1.63;;
41921;SDS011;27609;51.002;5.354;2022-10-16T04:49:56;1.35;;;1.25;;
41921;SDS011;27609;51.002;5.354;2022-10-16T04:52:23;5.93;;;1.63;;
41921;SDS011;27609;51.002;5.354;2022-10-16T04:54:50;2.35;;;2.15;;
41921;SDS011;27609;51.002;5.354;2022-10-16T04:57:16;2.42;;;1.77;;
41921;SDS011;27609;51.002;5.354;2022-10-16T04:59:42;6.80;;;1.90;;
41921;SDS011;27609;51.002;5.354;2022-10-16T05:02:07;3.10;;;1.85;;
41921;SDS011;27609;51.002;5.354;2022-10-16T05:04:33;3.42;;;1.98;;
41921;SDS011;27609;51.002;5.354;2022-10-16T05:06:59;3.95;;;1.88;;
41921;SDS011;27609;51.002;5.354;2022-10-16T05:09:25;2.10;;;1.90;;
41921;SDS011;27609;51.002;5.354;2022-10-16T05:11:50;4.07;;;1.98;;
41921;SDS011;27609;51.002;5.354;2022-10-16T05:14:16;3.10;;;1.58;;
41921;SDS011;27609;51.002;5.354;2022-10-16T05:16:42;6.07;;;2.35;;
41921;SDS011;27609;51.002;5.354;2022-10-16T05:19:08;4.72;;;2.40;;
41921;SDS011;27609;51.002;5.354;2022-10-16T05:21:33;2.85;;;2.22;;
41921;SDS011;27609;51.002;5.354;2022-10-16T05:23:59;2.72;;;2.15;;
41921;SDS011;27609;51.002;5.354;2022-10-16T05:26:25;3.60;;;2.05;;
41921;SDS011;27609;51.002;5.354;2022-10-16T05:28:50;3.55;;;1.88;;
41921;SDS011;27609;51.002;5.354;2022-10-16T05:31:16;3.55;;;2.47;;
41921;SDS011;27609;51.002;5.354;2022-10-16T05:33:42;4.50;;;2.25;;
41921;SDS011;27609;51.002;5.354;2022-10-16T05:36:09;3.45;;;2.40;;
41921;SDS011;27609;51.002;5.354;2022-10-16T05:38:35;2.83;;;2.50;;
41921;SDS011;27609;51.002;5.354;2022-10-16T05:41:02;6.32;;;2.80;;
41921;SDS011;27609;51.002;5.354;2022-10-16T05:43:29;6.43;;;2.83;;
41921;SDS011;27609;51.002;5.354;2022-10-16T05:46:01;2.40;;;2.20;;
41921;SDS011;27609;51.002;5.354;2022-10-16T05:48:30;4.00;;;2.75;;
41921;SDS011;27609;51.002;5.354;2022-10-16T05:51:00;4.88;;;2.60;;
41921;SDS011;27609;51.002;5.354;2022-10-16T05:53:28;2.78;;;2.30;;
41921;SDS011;27609;51.002;5.354;2022-10-16T05:55:55;4.30;;;2.75;;
41921;SDS011;27609;51.002;5.354;2022-10-16T05:58:21;5.18;;;2.90;;
41921;SDS011;27609;51.002;5.354;2022-10-16T06:00:57;3.03;;;2.42;;
41921;SDS011;27609;51.002;5.354;2022-10-16T06:03:24;3.33;;;2.97;;
41921;SDS011;27609;51.002;5.354;2022-10-16T06:05:50;6.25;;;2.65;;
41921;SDS011;27609;51.002;5.354;2022-10-16T06:08:16;5.45;;;2.75;;
41921;SDS011;27609;51.002;5.354;2022-10-16T06:10:43;4.15;;;2.60;;
41921;SDS011;27609;51.002;5.354;2022-10-16T06:13:10;6.25;;;3.00;;
41921;SDS011;27609;51.002;5.354;2022-10-16T06:15:36;4.65;;;2.38;;
41921;SDS011;27609;51.002;5.354;2022-10-16T06:18:03;2.97;;;2.50;;
41921;SDS011;27609;51.002;5.354;2022-10-16T06:20:30;6.82;;;3.10;;
41921;SDS011;27609;51.002;5.354;2022-10-16T06:22:56;4.10;;;2.85;;
41921;SDS011;27609;51.002;5.354;2022-10-16T06:25:22;10.00;;;2.92;;
41921;SDS011;27609;51.002;5.354;2022-10-16T06:27:48;6.43;;;3.30;;
41921;SDS011;27609;51.002;5.354;2022-10-16T06:30:13;5.85;;;2.75;;
41921;SDS011;27609;51.002;5.354;2022-10-16T06:32:39;4.38;;;3.20;;
41921;SDS011;27609;51.002;5.354;2022-10-16T06:35:05;5.90;;;2.90;;
41921;SDS011;27609;51.002;5.354;2022-10-16T06:37:31;3.88;;;2.40;;
41921;SDS011;27609;51.002;5.354;2022-10-16T06:39:56;4.22;;;2.70;;
41921;SDS011;27609;51.002;5.354;2022-10-16T06:42:22;4.45;;;2.65;;
41921;SDS011;27609;51.002;5.354;2022-10-16T06:44:48;6.90;;;2.45;;
41921;SDS011;27609;51.002;5.354;2022-10-16T06:47:14;7.13;;;2.97;;
41921;SDS011;27609;51.002;5.354;2022-10-16T06:49:39;7.70;;;2.90;;
41921;SDS011;27609;51.002;5.354;2022-10-16T06:52:05;4.22;;;3.05;;
41921;SDS011;27609;51.002;5.354;2022-10-16T06:54:31;3.42;;;2.58;;
41921;SDS011;27609;51.002;5.354;2022-10-16T06:56:56;3.08;;;2.45;;
41921;SDS011;27609;51.002;5.354;2022-10-16T06:59:22;3.50;;;2.03;;
41921;SDS011;27609;51.002;5.354;2022-10-16T07:01:48;2.38;;;1.70;;
41921;SDS011;27609;51.002;5.354;2022-10-16T07:04:14;6.63;;;1.88;;
41921;SDS011;27609;51.002;5.354;2022-10-16T07:06:40;5.18;;;1.80;;
41921;SDS011;27609;51.002;5.354;2022-10-16T07:09:06;4.15;;;1.70;;
41921;SDS011;27609;51.002;5.354;2022-10-16T07:11:34;1.88;;;1.48;;
41921;SDS011;27609;51.002;5.354;2022-10-16T07:14:02;1.63;;;1.50;;
41921;SDS011;27609;51.002;5.354;2022-10-16T07:16:28;6.65;;;1.80;;
41921;SDS011;27609;51.002;5.354;2022-10-16T07:18:59;2.20;;;1.33;;
41921;SDS011;27609;51.002;5.354;2022-10-16T07:21:30;1.40;;;1.15;;
41921;SDS011;27609;51.002;5.354;2022-10-16T07:24:00;7.22;;;1.30;;
41921;SDS011;27609;51.002;5.354;2022-10-16T07:26:27;3.17;;;1.30;;
41921;SDS011;27609;51.002;5.354;2022-10-16T07:28:55;5.03;;;1.42;;
41921;SDS011;27609;51.002;5.354;2022-10-16T07:31:21;1.92;;;1.42;;
41921;SDS011;27609;51.002;5.354;2022-10-16T07:33:48;2.97;;;1.38;;
41921;SDS011;27609;51.002;5.354;2022-10-16T07:36:15;4.43;;;1.42;;
41921;SDS011;27609;51.002;5.354;2022-10-16T07:38:42;2.08;;;1.20;;
41921;SDS011;27609;51.002;5.354;2022-10-16T07:41:10;8.02;;;1.60;;
41921;SDS011;27609;51.002;5.354;2022-10-16T07:43:37;3.05;;;1.15;;
41921;SDS011;27609;51.002;5.354;2022-10-16T07:46:04;5.00;;;1.40;;
41921;SDS011;27609;51.002;5.354;2022-10-16T07:48:30;1.77;;;1.08;;
41921;SDS011;27609;51.002;5.354;2022-10-16T07:50:58;3.80;;;1.25;;
41921;SDS011;27609;51.002;5.354;2022-10-16T07:53:24;2.22;;;1.40;;
41921;SDS011;27609;51.002;5.354;2022-10-16T07:55:50;2.25;;;1.10;;
41921;SDS011;27609;51.002;5.354;2022-10-16T07:58:16;4.30;;;1.30;;
41921;SDS011;27609;51.002;5.354;2022-10-16T08:00:42;1.17;;;1.00;;
41921;SDS011;27609;51.002;5.354;2022-10-16T08:03:08;3.42;;;1.05;;
41921;SDS011;27609;51.002;5.354;2022-10-16T08:05:34;3.80;;;1.15;;
41921;SDS011;27609;51.002;5.354;2022-10-16T08:08:00;3.55;;;1.27;;
41921;SDS011;27609;51.002;5.354;2022-10-16T08:10:27;1.17;;;0.90;;
41921;SDS011;27609;51.002;5.354;2022-10-16T08:13:03;4.70;;;1.30;;
41921;SDS011;27609;51.002;5.354;2022-10-16T08:15:29;3.10;;;1.10;;
41921;SDS011;27609;51.002;5.354;2022-10-16T08:18:17;1.92;;;1.25;;
41921;SDS011;27609;51.002;5.354;2022-10-16T08:20:43;4.90;;;1.23;;
41921;SDS011;27609;51.002;5.354;2022-10-16T08:23:12;3.90;;;1.40;;
41921;SDS011;27609;51.002;5.354;2022-10-16T08:25:45;2.80;;;1.20;;
41921;SDS011;27609;51.002;5.354;2022-10-16T08:28:11;6.57;;;1.30;;
41921;SDS011;27609;51.002;5.354;2022-10-16T08:30:40;2.10;;;1.13;;
41921;SDS011;27609;51.002;5.354;2022-10-16T08:33:12;5.45;;;1.10;;
41921;SDS011;27609;51.002;5.354;2022-10-16T08:35:37;1.40;;;0.77;;
41921;SDS011;27609;51.002;5.354;2022-10-16T08:40:58;4.50;;;1.40;;
41921;SDS011;27609;51.002;5.354;2022-10-16T08:46:53;6.90;;;0.85;;
41921;SDS011;27609;51.002;5.354;2022-10-16T08:49:48;2.33;;;1.25;;
41921;SDS011;27609;51.002;5.354;2022-10-16T08:52:42;2.67;;;0.90;;
41921;SDS011;27609;51.002;5.354;2022-10-16T08:58:10;3.40;;;1.20;;
41921;SDS011;27609;51.002;5.354;2022-10-16T09:00:51;4.38;;;1.02;;
41921;SDS011;27609;51.002;5.354;2022-10-16T09:23:15;3.83;;;1.25;;
41921;SDS011;27609;51.002;5.354;2022-10-16T09:25:44;5.38;;;1.38;;
41921;SDS011;27609;51.002;5.354;2022-10-16T09:28:13;1.95;;;1.20;;
41921;SDS011;27609;51.002;5.354;2022-10-16T09:30:39;2.85;;;1.02;;
41921;SDS011;27609;51.002;5.354;2022-10-16T09:33:05;4.00;;;1.10;;
41921;SDS011;27609;51.002;5.354;2022-10-16T09:35:51;4.38;;;1.13;;
41921;SDS011;27609;51.002;5.354;2022-10-16T09:38:32;4.65;;;1.00;;
41921;SDS011;27609;51.002;5.354;2022-10-16T09:41:00;4.88;;;1.35;;
41921;SDS011;27609;51.002;5.354;2022-10-16T09:49:20;3.42;;;1.02;;
41921;SDS011;27609;51.002;5.354;2022-10-16T09:52:09;3.40;;;1.00;;
41921;SDS011;27609;51.002;5.354;2022-10-16T09:57:13;2.47;;;1.20;;
41921;SDS011;27609;51.002;5.354;2022-10-16T09:59:50;3.53;;;1.00;;
41921;SDS011;27609;51.002;5.354;2022-10-16T10:02:18;2.47;;;1.00;;
41921;SDS011;27609;51.002;5.354;2022-10-16T10:04:51;5.85;;;1.40;;
41921;SDS011;27609;51.002;5.354;2022-10-16T10:07:26;4.10;;;1.08;;
41921;SDS011;27609;51.002;5.354;2022-10-16T10:09:58;2.60;;;1.10;;
41921;SDS011;27609;51.002;5.354;2022-10-16T10:12:29;1.92;;;0.90;;
41921;SDS011;27609;51.002;5.354;2022-10-16T10:15:07;3.17;;;1.15;;
41921;SDS011;27609;51.002;5.354;2022-10-16T10:20:22;2.22;;;1.52;;
41921;SDS011;27609;51.002;5.354;2022-10-16T10:22:50;2.58;;;1.70;;
41921;SDS011;27609;51.002;5.354;2022-10-16T10:25:21;3.15;;;1.75;;
41921;SDS011;27609;51.002;5.354;2022-10-16T10:31:03;4.97;;;1.48;;
41921;SDS011;27609;51.002;5.354;2022-10-16T10:38:57;3.47;;;1.20;;
41921;SDS011;27609;51.002;5.354;2022-10-16T10:44:05;3.78;;;1.10;;
41921;SDS011;27609;51.002;5.354;2022-10-16T11:00:30;12.38;;;7.20;;
41921;SDS011;27609;51.002;5.354;2022-10-16T11:05:56;1.90;;;0.90;;
41921;SDS011;27609;51.002;5.354;2022-10-16T11:08:32;4.40;;;1.20;;
41921;SDS011;27609;51.002;5.354;2022-10-16T11:11:30;3.33;;;1.13;;
41921;SDS011;27609;51.002;5.354;2022-10-16T11:14:04;3.05;;;0.93;;
41921;SDS011;27609;51.002;5.354;2022-10-16T11:16:44;1.90;;;1.00;;
41921;SDS011;27609;51.002;5.354;2022-10-16T11:19:18;3.42;;;1.00;;
41921;SDS011;27609;51.002;5.354;2022-10-16T11:22:09;1.90;;;0.73;;
41921;SDS011;27609;51.002;5.354;2022-10-16T11:25:00;1.50;;;0.90;;
41921;SDS011;27609;51.002;5.354;2022-10-16T11:27:34;4.63;;;1.27;;
41921;SDS011;27609;51.002;5.354;2022-10-16T11:30:15;4.97;;;0.98;;
41921;SDS011;27609;51.002;5.354;2022-10-16T11:35:23;3.28;;;0.75;;
41921;SDS011;27609;51.002;5.354;2022-10-16T11:37:55;3.03;;;0.98;;
41921;SDS011;27609;51.002;5.354;2022-10-16T11:40:31;2.97;;;0.95;;
41921;SDS011;27609;51.002;5.354;2022-10-16T11:43:02;1.88;;;0.80;;
41921;SDS011;27609;51.002;5.354;2022-10-16T11:45:42;5.25;;;0.98;;
41921;SDS011;27609;51.002;5.354;2022-10-16T11:48:18;1.58;;;0.70;;
41921;SDS011;27609;51.002;5.354;2022-10-16T11:51:02;1.95;;;0.75;;
41921;SDS011;27609;51.002;5.354;2022-10-16T11:53:46;1.13;;;0.98;;
41921;SDS011;27609;51.002;5.354;2022-10-16T11:56:18;4.22;;;1.35;;
41921;SDS011;27609;51.002;5.354;2022-10-16T11:58:51;3.58;;;1.00;;
41921;SDS011;27609;51.002;5.354;2022-10-16T12:01:43;2.28;;;0.80;;
41921;SDS011;27609;51.002;5.354;2022-10-16T12:04:25;1.63;;;0.90;;
41921;SDS011;27609;51.002;5.354;2022-10-16T12:07:18;5.10;;;0.70;;
41921;SDS011;27609;51.002;5.354;2022-10-16T12:09:52;4.28;;;0.70;;
41921;SDS011;27609;51.002;5.354;2022-10-16T12:15:00;3.50;;;0.93;;
41921;SDS011;27609;51.002;5.354;2022-10-16T12:17:34;2.80;;;0.90;;
41921;SDS011;27609;51.002;5.354;2022-10-16T12:22:52;4.78;;;1.17;;
41921;SDS011;27609;51.002;5.354;2022-10-16T12:25:37;2.88;;;0.77;;
41921;SDS011;27609;51.002;5.354;2022-10-16T12:30:40;2.10;;;0.85;;
41921;SDS011;27609;51.002;5.354;2022-10-16T12:33:24;2.45;;;0.90;;
41921;SDS011;27609;51.002;5.354;2022-10-16T12:35:54;2.20;;;0.70;;
41921;SDS011;27609;51.002;5.354;2022-10-16T12:38:25;2.72;;;1.10;;
41921;SDS011;27609;51.002;5.354;2022-10-16T12:41:11;2.10;;;0.80;;
41921;SDS011;27609;51.002;5.354;2022-10-16T12:43:40;2.88;;;0.70;;
41921;SDS011;27609;51.002;5.354;2022-10-16T12:48:39;0.82;;;0.63;;
41921;SDS011;27609;51.002;5.354;2022-10-16T12:59:42;2.08;;;0.75;;
41921;SDS011;27609;51.002;5.354;2022-10-16T13:08:22;2.90;;;0.80;;
41921;SDS011;27609;51.002;5.354;2022-10-16T13:27:21;3.88;;;0.77;;
41921;SDS011;27609;51.002;5.354;2022-10-16T13:30:51;2.85;;;0.93;;
41921;SDS011;27609;51.002;5.354;2022-10-16T13:33:15;2.75;;;1.02;;
41921;SDS011;27609;51.002;5.354;2022-10-16T13:35:52;4.35;;;0.88;;
41921;SDS011;27609;51.002;5.354;2022-10-16T13:38:23;4.22;;;0.70;;
41921;SDS011;27609;51.002;5.354;2022-10-16T13:46:04;4.40;;;1.20;;
41921;SDS011;27609;51.002;5.354;2022-10-16T13:48:32;2.75;;;0.93;;
41921;SDS011;27609;51.002;5.354;2022-10-16T13:51:12;0.90;;;0.68;;
41921;SDS011;27609;51.002;5.354;2022-10-16T13:53:40;2.20;;;1.00;;
41921;SDS011;27609;51.002;5.354;2022-10-16T13:56:10;2.35;;;1.08;;
41921;SDS011;27609;51.002;5.354;2022-10-16T13:58:37;2.42;;;1.00;;
41921;SDS011;27609;51.002;5.354;2022-10-16T14:01:03;4.35;;;0.68;;
41921;SDS011;27609;51.002;5.354;2022-10-16T14:03:31;3.97;;;1.17;;
41921;SDS011;27609;51.002;5.354;2022-10-16T14:06:00;3.15;;;0.88;;
41921;SDS011;27609;51.002;5.354;2022-10-16T14:08:28;2.13;;;0.47;;
41921;SDS011;27609;51.002;5.354;2022-10-16T14:10:59;4.35;;;0.70;;
41921;SDS011;27609;51.002;5.354;2022-10-16T14:13:29;2.67;;;0.70;;
41921;SDS011;27609;51.002;5.354;2022-10-16T14:16:07;2.60;;;0.85;;
41921;SDS011;27609;51.002;5.354;2022-10-16T14:18:35;3.03;;;1.05;;
41921;SDS011;27609;51.002;5.354;2022-10-16T14:21:04;5.10;;;0.80;;
41921;SDS011;27609;51.002;5.354;2022-10-16T14:23:34;2.00;;;0.77;;
41921;SDS011;27609;51.002;5.354;2022-10-16T14:26:21;3.80;;;0.88;;
41921;SDS011;27609;51.002;5.354;2022-10-16T14:29:00;1.60;;;1.00;;
41921;SDS011;27609;51.002;5.354;2022-10-16T14:31:34;4.35;;;1.00;;
41921;SDS011;27609;51.002;5.354;2022-10-16T14:34:01;5.43;;;1.00;;
41921;SDS011;27609;51.002;5.354;2022-10-16T14:36:28;4.97;;;0.90;;
41921;SDS011;27609;51.002;5.354;2022-10-16T14:39:14;2.08;;;0.70;;
41921;SDS011;27609;51.002;5.354;2022-10-16T14:41:45;3.40;;;0.80;;
41921;SDS011;27609;51.002;5.354;2022-10-16T14:44:12;1.85;;;0.90;;
41921;SDS011;27609;51.002;5.354;2022-10-16T14:46:39;2.00;;;0.75;;
41921;SDS011;27609;51.002;5.354;2022-10-16T14:51:36;3.30;;;0.90;;
41921;SDS011;27609;51.002;5.354;2022-10-16T14:54:03;2.65;;;0.93;;
41921;SDS011;27609;51.002;5.354;2022-10-16T14:56:30;4.70;;;1.33;;
41921;SDS011;27609;51.002;5.354;2022-10-16T14:59:00;4.32;;;1.15;;
41921;SDS011;27609;51.002;5.354;2022-10-16T15:01:27;4.07;;;1.38;;
41921;SDS011;27609;51.002;5.354;2022-10-16T15:03:53;1.65;;;0.95;;
41921;SDS011;27609;51.002;5.354;2022-10-16T15:06:20;1.45;;;0.70;;
41921;SDS011;27609;51.002;5.354;2022-10-16T15:08:46;3.40;;;1.20;;
41921;SDS011;27609;51.002;5.354;2022-10-16T15:11:16;1.55;;;0.70;;
41921;SDS011;27609;51.002;5.354;2022-10-16T15:13:43;3.95;;;1.08;;
41921;SDS011;27609;51.002;5.354;2022-10-16T15:16:15;3.20;;;0.90;;
41921;SDS011;27609;51.002;5.354;2022-10-16T15:18:41;1.55;;;1.00;;
41921;SDS011;27609;51.002;5.354;2022-10-16T15:21:08;4.53;;;0.98;;
41921;SDS011;27609;51.002;5.354;2022-10-16T15:23:44;2.45;;;0.85;;
41921;SDS011;27609;51.002;5.354;2022-10-16T15:26:09;2.97;;;1.17;;
41921;SDS011;27609;51.002;5.354;2022-10-16T15:28:35;3.20;;;1.20;;
41921;SDS011;27609;51.002;5.354;2022-10-16T15:31:01;2.47;;;1.50;;
41921;SDS011;27609;51.002;5.354;2022-10-16T15:33:30;4.70;;;1.50;;
41921;SDS011;27609;51.002;5.354;2022-10-16T15:35:59;4.97;;;2.00;;
41921;SDS011;27609;51.002;5.354;2022-10-16T15:38:25;2.75;;;1.60;;
41921;SDS011;27609;51.002;5.354;2022-10-16T15:40:52;5.50;;;2.05;;
41921;SDS011;27609;51.002;5.354;2022-10-16T15:43:18;4.88;;;1.30;;
41921;SDS011;27609;51.002;5.354;2022-10-16T15:45:44;3.53;;;1.20;;
41921;SDS011;27609;51.002;5.354;2022-10-16T15:48:17;4.85;;;1.30;;
41921;SDS011;27609;51.002;5.354;2022-10-16T15:50:42;6.20;;;1.05;;
41921;SDS011;27609;51.002;5.354;2022-10-16T15:53:08;4.53;;;1.35;;
41921;SDS011;27609;51.002;5.354;2022-10-16T15:55:34;1.75;;;1.20;;
41921;SDS011;27609;51.002;5.354;2022-10-16T15:58:02;5.43;;;1.33;;
41921;SDS011;27609;51.002;5.354;2022-10-16T16:00:28;5.05;;;1.30;;
41921;SDS011;27609;51.002;5.354;2022-10-16T16:02:54;5.20;;;1.77;;
41921;SDS011;27609;51.002;5.354;2022-10-16T16:05:20;4.50;;;2.00;;
41921;SDS011;27609;51.002;5.354;2022-10-16T16:07:47;6.05;;;1.73;;
41921;SDS011;27609;51.002;5.354;2022-10-16T16:10:13;4.72;;;1.67;;
41921;SDS011;27609;51.002;5.354;2022-10-16T16:12:38;2.45;;;1.58;;
41921;SDS011;27609;51.002;5.354;2022-10-16T16:15:05;4.95;;;1.85;;
41921;SDS011;27609;51.002;5.354;2022-10-16T16:17:32;5.80;;;1.70;;
41921;SDS011;27609;51.002;5.354;2022-10-16T16:19:58;3.47;;;1.50;;
41921;SDS011;27609;51.002;5.354;2022-10-16T16:22:24;2.38;;;1.48;;
41921;SDS011;27609;51.002;5.354;2022-10-16T16:24:50;3.65;;;1.40;;
41921;SDS011;27609;51.002;5.354;2022-10-16T16:27:16;7.75;;;1.73;;
41921;SDS011;27609;51.002;5.354;2022-10-16T16:29:42;3.17;;;1.17;;
41921;SDS011;27609;51.002;5.354;2022-10-16T16:32:08;4.97;;;1.52;;
41921;SDS011;27609;51.002;5.354;2022-10-16T16:34:33;3.88;;;1.95;;
41921;SDS011;27609;51.002;5.354;2022-10-16T16:37:00;4.13;;;1.23;;
41921;SDS011;27609;51.002;5.354;2022-10-16T16:39:25;3.35;;;1.63;;
41921;SDS011;27609;51.002;5.354;2022-10-16T16:41:51;3.90;;;1.10;;
41921;SDS011;27609;51.002;5.354;2022-10-16T16:44:18;3.25;;;1.35;;
41921;SDS011;27609;51.002;5.354;2022-10-16T16:46:44;4.60;;;1.70;;
41921;SDS011;27609;51.002;5.354;2022-10-16T16:49:10;3.30;;;1.92;;
41921;SDS011;27609;51.002;5.354;2022-10-16T16:51:38;4.50;;;1.48;;
41921;SDS011;27609;51.002;5.354;2022-10-16T16:54:04;8.07;;;2.30;;
41921;SDS011;27609;51.002;5.354;2022-10-16T16:56:31;4.28;;;1.88;;
41921;SDS011;27609;51.002;5.354;2022-10-16T16:58:57;6.05;;;2.10;;
41921;SDS011;27609;51.002;5.354;2022-10-16T17:01:24;5.57;;;1.85;;
41921;SDS011;27609;51.002;5.354;2022-10-16T17:03:52;5.25;;;2.25;;
41921;SDS011;27609;51.002;5.354;2022-10-16T17:06:19;5.80;;;2.38;;
41921;SDS011;27609;51.002;5.354;2022-10-16T17:08:47;8.50;;;3.65;;
41921;SDS011;27609;51.002;5.354;2022-10-16T17:11:15;9.65;;;4.35;;
41921;SDS011;27609;51.002;5.354;2022-10-16T17:13:49;10.25;;;6.00;;
41921;SDS011;27609;51.002;5.354;2022-10-16T17:16:15;10.25;;;6.32;;
41921;SDS011;27609;51.002;5.354;2022-10-16T17:18:41;11.75;;;6.10;;
41921;SDS011;27609;51.002;5.354;2022-10-16T17:21:08;19.05;;;9.77;;
41921;SDS011;27609;51.002;5.354;2022-10-16T17:23:36;18.38;;;9.45;;